Time;durP1;ratioP1;P1;durP2;ratioP2;P2;SDS_P1;SDS_P2;PMS_P1;PMS_P2;Temp;Humidity;BMP_temperature;BMP_pressure;BME280_temperature;BME280_humidity;BME280_pressure;Samples;Min_cycle;Max_cycle;Signal;HPM_P1;HPM_P2
2021/06/16 00:00:13;;;;;;;17.75;13.55;;;;;;;17.69;76.34;100892.17;1626534;86;25985;-75
2021/06/16 00:02:44;;;;;;;20.65;13.72;;;;;;;17.67;76.54;100899.70;1669829;84;25768;-76
2021/06/16 00:05:24;;;;;;;17.87;12.88;;;;;;;17.60;76.96;100894.36;1628043;86;26488;-76
2021/06/16 00:07:51;;;;;;;17.32;12.88;;;;;;;17.55;76.81;100889.33;1666163;85;25770;-76
2021/06/16 00:10:22;;;;;;;17.10;12.58;;;;;;;17.51;77.13;100893.55;1621429;85;28333;-76
2021/06/16 00:12:49;;;;;;;19.70;12.80;;;;;;;17.48;77.31;100892.07;1646363;86;25842;-76
2021/06/16 00:15:25;;;;;;;19.50;13.22;;;;;;;17.45;77.86;100891.70;1647021;86;26612;-75
2021/06/16 00:17:52;;;;;;;15.40;12.70;;;;;;;17.38;77.90;100891.77;1678287;83;27051;-76
2021/06/16 00:20:19;;;;;;;16.10;12.75;;;;;;;17.32;77.87;100887.22;1641967;83;25880;-76
2021/06/16 00:22:46;;;;;;;19.60;13.60;;;;;;;17.28;77.82;100889.28;1655311;84;28244;-76
2021/06/16 00:25:14;;;;;;;19.60;12.35;;;;;;;17.25;77.73;100889.19;1654229;85;25319;-76
2021/06/16 00:27:41;;;;;;;17.07;12.35;;;;;;;17.23;77.98;100891.30;1628792;86;26464;-75
2021/06/16 00:30:10;;;;;;;20.23;12.45;;;;;;;17.20;77.91;100882.25;1592815;86;26380;-75
2021/06/16 00:32:39;;;;;;;17.70;12.18;;;;;;;17.19;78.36;100894.14;1611833;86;26262;-75
2021/06/16 00:35:08;;;;;;;13.95;10.55;;;;;;;17.14;78.06;100889.08;1625527;87;27529;-75
2021/06/16 00:37:35;;;;;;;14.58;11.25;;;;;;;17.09;78.76;100887.03;1643008;85;25598;-75
2021/06/16 00:40:06;;;;;;;13.38;10.98;;;;;;;17.05;78.29;100894.46;1589335;86;25882;-76
2021/06/16 00:42:33;;;;;;;17.07;12.88;;;;;;;17.01;78.72;100882.42;1607159;88;25881;-76
2021/06/16 00:45:00;;;;;;;16.30;11.70;;;;;;;16.98;78.47;100887.75;1611512;86;25821;-75
2021/06/16 00:47:27;;;;;;;14.75;10.50;;;;;;;16.98;78.59;100891.30;1643825;86;28331;-75
2021/06/16 00:49:54;;;;;;;16.32;11.40;;;;;;;16.93;78.90;100897.91;1572091;88;25818;-76
2021/06/16 00:52:23;;;;;;;15.35;11.20;;;;;;;16.90;78.46;100901.05;1629043;87;26487;-76
2021/06/16 00:54:50;;;;;;;16.12;10.85;;;;;;;16.87;78.53;100897.41;1642238;86;26390;-75
2021/06/16 00:57:18;;;;;;;21.33;11.68;;;;;;;16.85;78.40;100900.88;1627681;86;25911;-75
2021/06/16 01:00:09;;;;;;;14.65;11.40;;;;;;;16.81;78.44;100899.66;1598581;85;27378;-76
2021/06/16 01:02:41;;;;;;;14.73;11.53;;;;;;;16.78;78.46;100901.47;1591801;88;25862;-75
2021/06/16 01:05:09;;;;;;;17.48;11.50;;;;;;;16.77;78.69;100898.45;1619019;86;25783;-76
2021/06/16 01:07:41;;;;;;;16.02;11.28;;;;;;;16.75;78.50;100899.70;1638518;86;25792;-75
2021/06/16 01:10:15;;;;;;;15.98;10.98;;;;;;;16.68;78.51;100903.81;1596043;86;26182;-75
2021/06/16 01:13:05;;;;;;;16.70;11.33;;;;;;;16.64;78.67;100905.81;1638953;86;28857;-76
2021/06/16 01:16:04;;;;;;;16.48;10.05;;;;;;;16.59;78.95;100905.66;1571666;89;26661;-75
2021/06/16 01:18:52;;;;;;;14.80;10.93;;;;;;;16.51;79.28;100912.69;1615489;86;25947;-75
2021/06/16 01:21:21;;;;;;;14.95;10.15;;;;;;;16.43;78.98;100928.59;1612618;86;26001;-75
2021/06/16 01:24:19;;;;;;;16.02;9.88;;;;;;;16.35;79.09;100933.43;1566783;86;25839;-75
2021/06/16 01:26:51;;;;;;;17.32;10.82;;;;;;;16.32;78.88;100934.69;1673234;84;28335;-75
2021/06/16 01:29:32;;;;;;;17.35;9.63;;;;;;;16.30;78.91;100932.72;1636787;84;26647;-75
2021/06/16 01:32:01;;;;;;;15.08;9.23;;;;;;;16.27;78.66;100935.88;1689915;83;25835;-75
2021/06/16 01:34:28;;;;;;;15.55;9.50;;;;;;;16.23;78.46;100940.86;1666835;84;26525;-76
2021/06/16 01:36:58;;;;;;;14.50;8.53;;;;;;;16.21;78.38;100938.06;1677725;84;25957;-76
2021/06/16 01:39:30;;;;;;;11.60;7.85;;;;;;;16.18;78.07;100945.27;1684969;83;27585;-75
2021/06/16 01:42:03;;;;;;;14.05;7.72;;;;;;;16.12;77.99;100944.78;1655472;85;26568;-75
2021/06/16 01:44:31;;;;;;;9.53;6.33;;;;;;;16.04;77.62;100949.89;1679932;84;25817;-75
2021/06/16 01:47:00;;;;;;;9.68;6.33;;;;;;;15.98;77.34;100945.34;1640533;84;26861;-75
2021/06/16 01:49:29;;;;;;;10.88;6.40;;;;;;;15.91;77.14;100947.77;1666804;83;25936;-75
2021/06/16 01:51:58;;;;;;;14.93;6.58;;;;;;;15.84;76.76;100947.79;1693020;83;28291;-75
2021/06/16 01:54:28;;;;;;;9.30;5.45;;;;;;;15.81;76.26;100946.02;1646926;86;25964;-75
2021/06/16 01:56:56;;;;;;;8.13;5.17;;;;;;;15.76;75.89;100946.64;1638964;84;25999;-76
2021/06/16 01:59:24;;;;;;;9.13;4.80;;;;;;;15.72;75.72;100947.28;1634711;84;25814;-75
2021/06/16 02:01:52;;;;;;;8.05;4.83;;;;;;;15.65;75.53;100945.97;1682441;82;25813;-76
2021/06/16 02:04:19;;;;;;;6.20;4.10;;;;;;;15.62;75.40;100946.38;1663821;84;27470;-75
2021/06/16 02:06:57;;;;;;;6.97;4.60;;;;;;;15.62;75.22;100952.30;1614098;86;26149;-75
2021/06/16 02:09:26;;;;;;;9.15;4.40;;;;;;;15.58;75.08;100954.59;1687809;84;26492;-75
2021/06/16 02:11:53;;;;;;;7.50;4.30;;;;;;;15.60;74.96;100958.43;1658008;85;25915;-76
2021/06/16 02:14:23;;;;;;;8.60;4.35;;;;;;;15.56;74.72;100960.73;1680967;84;25938;-75
2021/06/16 02:17:01;;;;;;;7.05;4.30;;;;;;;15.53;74.73;100961.65;1641921;84;27426;-75
2021/06/16 02:19:32;;;;;;;5.03;4.17;;;;;;;15.54;74.69;100968.73;1673965;84;25976;-75
2021/06/16 02:22:00;;;;;;;5.55;4.08;;;;;;;15.51;74.48;100965.08;1663595;84;35385;-75
2021/06/16 02:24:28;;;;;;;6.25;3.87;;;;;;;15.48;74.46;100962.31;1681621;84;26587;-75
2021/06/16 02:26:55;;;;;;;5.47;3.98;;;;;;;15.47;74.25;100965.20;1611644;84;25918;-75
2021/06/16 02:29:25;;;;;;;7.12;3.72;;;;;;;15.46;74.35;100959.50;1668357;84;27610;-75
2021/06/16 02:31:52;;;;;;;5.55;3.98;;;;;;;15.46;74.11;100963.04;1689953;83;25885;-76
2021/06/16 02:34:24;;;;;;;7.10;3.45;;;;;;;15.43;73.95;100962.94;1680657;84;25752;-75
2021/06/16 02:36:55;;;;;;;9.03;3.70;;;;;;;15.42;73.90;100965.78;1624807;84;26457;-77
2021/06/16 02:39:28;;;;;;;4.80;3.67;;;;;;;15.37;73.65;100966.95;1659614;85;25793;-76
2021/06/16 02:41:56;;;;;;;6.00;3.15;;;;;;;15.35;73.50;100975.23;1665625;85;27491;-75
2021/06/16 02:44:25;;;;;;;4.80;2.83;;;;;;;15.31;73.40;100976.70;1683094;84;25889;-76
2021/06/16 02:46:55;;;;;;;6.65;3.00;;;;;;;15.29;73.32;100976.08;1663103;84;25927;-75
2021/06/16 02:49:44;;;;;;;4.78;2.90;;;;;;;15.28;73.29;100975.78;1687793;83;25846;-76
2021/06/16 02:52:15;;;;;;;7.53;3.00;;;;;;;15.26;72.99;100979.21;1663491;84;26173;-76
2021/06/16 02:54:45;;;;;;;4.62;3.00;;;;;;;15.22;72.87;100979.31;1667375;84;27512;-75
2021/06/16 02:57:17;;;;;;;5.28;2.80;;;;;;;15.20;72.77;100980.05;1632930;85;25946;-75
2021/06/16 02:59:52;;;;;;;8.08;3.12;;;;;;;15.18;72.47;100981.28;1674377;84;25524;-75
2021/06/16 03:02:23;;;;;;;6.00;2.55;;;;;;;15.19;72.42;100985.12;1653935;84;25916;-75
2021/06/16 03:04:51;;;;;;;6.03;2.72;;;;;;;15.17;71.98;100980.95;1617590;86;25844;-75
2021/06/16 03:07:21;;;;;;;6.08;3.08;;;;;;;15.14;71.90;100979.50;1595290;86;27378;-75
2021/06/16 03:09:49;;;;;;;5.08;2.30;;;;;;;15.13;71.64;100985.11;1645143;85;26504;-75
2021/06/16 03:12:18;;;;;;;5.53;2.42;;;;;;;15.10;71.69;100994.45;1636054;85;25829;-75
2021/06/16 03:14:48;;;;;;;5.22;2.10;;;;;;;15.10;71.52;100990.40;1680091;84;26505;-75
2021/06/16 03:17:18;;;;;;;4.83;2.20;;;;;;;15.10;71.30;100990.91;1660263;84;25831;-76
2021/06/16 03:19:46;;;;;;;6.70;2.20;;;;;;;15.11;71.30;100997.98;1642338;84;27614;-75
2021/06/16 03:22:16;;;;;;;7.05;1.90;;;;;;;15.10;71.15;100999.84;1689149;83;25914;-75
2021/06/16 03:24:45;;;;;;;4.17;1.98;;;;;;;15.11;70.96;101003.37;1669490;84;25768;-75
2021/06/16 03:27:12;;;;;;;2.52;1.77;;;;;;;15.12;71.01;101007.75;1658479;84;26488;-75
2021/06/16 03:29:40;;;;;;;4.72;2.30;;;;;;;15.13;70.99;101007.53;1660537;82;26632;-76
2021/06/16 03:32:10;;;;;;;4.37;1.90;;;;;;;15.15;71.04;101012.72;1688451;83;27431;-75
2021/06/16 03:34:37;;;;;;;5.47;2.05;;;;;;;15.18;70.57;101017.72;1675903;84;25346;-75
2021/06/16 03:37:09;;;;;;;5.30;2.00;;;;;;;15.19;70.72;101022.06;1607233;86;25819;-75
2021/06/16 03:39:38;;;;;;;3.33;1.90;;;;;;;15.21;70.72;101023.52;1666105;84;25878;-75
2021/06/16 03:42:07;;;;;;;4.62;1.67;;;;;;;15.20;70.34;101023.22;1656874;85;25735;-75
2021/06/16 03:44:35;;;;;;;3.62;1.57;;;;;;;15.18;70.09;101027.16;1655296;84;27626;-75
2021/06/16 03:47:04;;;;;;;3.47;1.62;;;;;;;15.14;70.18;101025.38;1638203;84;25921;-76
2021/06/16 03:49:33;;;;;;;6.72;1.72;;;;;;;15.17;69.94;101029.53;1616055;84;25904;-76
2021/06/16 03:52:01;;;;;;;5.00;1.90;;;;;;;15.20;70.15;101029.97;1638278;86;26190;-75
2021/06/16 03:54:30;;;;;;;3.80;1.90;;;;;;;15.25;70.15;101026.63;1635992;86;25899;-76
2021/06/16 03:56:57;;;;;;;4.58;1.40;;;;;;;15.27;69.72;101025.89;1614019;86;27579;-75
2021/06/16 03:59:24;;;;;;;3.90;1.70;;;;;;;15.28;69.66;101023.53;1612098;86;25859;-75
2021/06/16 04:01:51;;;;;;;4.33;1.57;;;;;;;15.29;69.63;101023.85;1608156;87;25933;-75
2021/06/16 04:04:18;;;;;;;2.80;1.20;;;;;;;15.27;69.38;101034.00;1627809;86;25848;-75
2021/06/16 04:06:47;;;;;;;4.05;1.65;;;;;;;15.26;69.44;101029.14;1593334;86;25792;-75
2021/06/16 04:09:15;;;;;;;5.78;1.42;;;;;;;15.27;69.29;101030.78;1625298;86;27638;-75
2021/06/16 04:11:43;;;;;;;4.55;1.70;;;;;;;15.33;69.32;101037.24;1632997;86;26399;-75
2021/06/16 04:14:11;;;;;;;2.85;1.60;;;;;;;15.40;69.42;101028.61;1630055;86;25851;-76
2021/06/16 04:16:44;;;;;;;4.22;1.35;;;;;;;15.49;69.17;101031.45;1594647;86;25778;-75
2021/06/16 04:19:12;;;;;;;3.45;1.40;;;;;;;15.57;69.10;101035.83;1603862;86;27359;-75
2021/06/16 04:21:40;;;;;;;4.05;1.65;;;;;;;15.65;68.85;101034.25;1637895;86;27579;-75
2021/06/16 04:24:07;;;;;;;4.10;1.62;;;;;;;15.72;68.84;101033.19;1638175;86;25869;-75
2021/06/16 04:26:34;;;;;;;4.60;1.98;;;;;;;15.79;68.82;101024.57;1593646;86;26515;-74
2021/06/16 04:29:01;;;;;;;4.62;1.75;;;;;;;15.89;68.69;101034.41;1597218;86;26641;-76
2021/06/16 04:31:28;;;;;;;5.72;2.25;;;;;;;15.98;68.40;101039.91;1613989;86;25822;-75
2021/06/16 04:33:55;;;;;;;4.35;1.65;;;;;;;16.03;68.20;101034.72;1634974;86;28321;-75
2021/06/16 04:36:22;;;;;;;2.10;1.35;;;;;;;16.07;67.71;101036.45;1613420;86;26068;-76
2021/06/16 04:38:49;;;;;;;4.15;1.40;;;;;;;16.11;67.75;101039.88;1613623;86;26535;-75
2021/06/16 04:41:16;;;;;;;3.60;1.70;;;;;;;16.18;67.64;101048.81;1611455;86;25825;-75
2021/06/16 04:43:44;;;;;;;5.83;1.85;;;;;;;16.21;67.04;101051.08;1633248;86;25843;-75
2021/06/16 04:46:11;;;;;;;2.80;1.50;;;;;;;16.21;67.03;101049.72;1608203;86;27556;-75
2021/06/16 04:48:42;;;;;;;5.70;1.60;;;;;;;16.21;66.80;101048.88;1613236;87;26763;-75
2021/06/16 04:51:09;;;;;;;4.55;1.52;;;;;;;16.21;66.83;101052.42;1639587;85;25895;-75
2021/06/16 04:53:37;;;;;;;3.45;1.55;;;;;;;16.28;67.06;101047.00;1634141;86;26705;-75
2021/06/16 04:56:04;;;;;;;3.85;1.62;;;;;;;16.40;67.06;101049.88;1597971;86;25844;-76
2021/06/16 04:58:31;;;;;;;4.37;1.70;;;;;;;16.47;66.67;101043.91;1607482;86;28121;-76
2021/06/16 05:00:58;;;;;;;5.85;1.42;;;;;;;16.56;66.62;101035.90;1613598;86;25860;-75
2021/06/16 05:03:25;;;;;;;3.60;1.40;;;;;;;16.60;66.34;101041.18;1632414;86;26382;-75
2021/06/16 05:05:53;;;;;;;4.30;1.35;;;;;;;16.60;66.12;101040.67;1592402;86;25989;-75
2021/06/16 05:08:20;;;;;;;2.62;1.40;;;;;;;16.64;65.75;101043.77;1617834;86;25823;-75
2021/06/16 05:10:47;;;;;;;3.27;1.40;;;;;;;16.67;65.28;101051.45;1639187;86;27581;-75
2021/06/16 05:13:23;;;;;;;2.20;1.42;;;;;;;16.73;65.86;101050.08;1634243;86;25808;-75
2021/06/16 05:15:51;;;;;;;3.77;1.60;;;;;;;16.80;65.62;101041.92;1632264;86;25842;-75
2021/06/16 05:18:19;;;;;;;6.45;1.50;;;;;;;16.88;65.56;101046.56;1592938;86;25874;-76
2021/06/16 05:20:46;;;;;;;4.15;1.37;;;;;;;16.92;65.03;101046.95;1636408;85;25727;-76
2021/06/16 05:23:13;;;;;;;2.72;1.40;;;;;;;16.94;64.46;101042.14;1616209;86;28654;-76
2021/06/16 05:25:41;;;;;;;3.87;1.17;;;;;;;16.98;65.11;101048.77;1606267;86;25832;-76
2021/06/16 05:28:09;;;;;;;3.70;1.62;;;;;;;17.02;64.31;101051.90;1659841;84;25779;-76
2021/06/16 05:30:37;;;;;;;4.58;1.30;;;;;;;17.05;64.09;101046.03;1677452;84;25896;-75
2021/06/16 05:33:05;;;;;;;6.25;1.50;;;;;;;17.08;64.38;101057.27;1637824;85;25937;-76
2021/06/16 05:35:32;;;;;;;3.67;1.17;;;;;;;17.16;64.74;101050.23;1666725;84;28268;-76
2021/06/16 05:37:59;;;;;;;5.50;1.60;;;;;;;17.25;64.07;101056.22;1665499;84;25822;-76
2021/06/16 05:40:26;;;;;;;5.40;1.57;;;;;;;17.29;63.97;101052.02;1685830;84;26449;-75
2021/06/16 05:42:53;;;;;;;3.75;1.60;;;;;;;17.30;63.90;101055.85;1651303;84;25821;-75
2021/06/16 05:45:20;;;;;;;3.98;1.70;;;;;;;17.37;64.15;101050.39;1615299;86;26520;-76
2021/06/16 05:47:47;;;;;;;3.87;1.25;;;;;;;17.46;64.06;101053.14;1668772;84;27544;-76
2021/06/16 05:50:15;;;;;;;5.08;1.25;;;;;;;17.50;63.07;101053.86;1674467;84;25896;-76
2021/06/16 05:52:42;;;;;;;6.42;1.65;;;;;;;17.52;62.95;101065.30;1636876;85;26521;-75
2021/06/16 05:55:09;;;;;;;4.37;1.80;;;;;;;17.59;63.16;101059.84;1642042;84;25854;-76
2021/06/16 05:57:36;;;;;;;4.65;1.50;;;;;;;17.65;63.36;101073.84;1664562;84;25994;-75
2021/06/16 06:00:07;;;;;;;5.40;1.05;;;;;;;17.66;62.54;101061.42;1677346;82;27511;-75
2021/06/16 06:02:34;;;;;;;4.70;1.57;;;;;;;17.69;63.12;101066.93;1685231;83;26462;-75
2021/06/16 06:05:01;;;;;;;4.30;0.90;;;;;;;17.73;62.63;101068.98;1669824;84;25748;-76
2021/06/16 06:07:28;;;;;;;3.72;1.62;;;;;;;17.69;62.26;101070.99;1662902;84;27085;-76
2021/06/16 06:09:55;;;;;;;3.87;1.55;;;;;;;17.63;62.26;101067.30;1622419;85;25762;-76
2021/06/16 06:12:22;;;;;;;5.97;1.47;;;;;;;17.62;62.53;101064.28;1638327;85;27533;-76
2021/06/16 06:14:49;;;;;;;5.45;1.20;;;;;;;17.70;62.60;101074.02;1612722;86;25794;-76
2021/06/16 06:17:16;;;;;;;3.75;1.40;;;;;;;17.76;62.94;101074.48;1637168;84;25540;-76
2021/06/16 06:19:43;;;;;;;2.37;1.07;;;;;;;17.83;62.87;101072.55;1687281;84;26409;-76
2021/06/16 06:22:10;;;;;;;3.15;1.37;;;;;;;17.89;62.36;101081.66;1643122;84;26633;-76
2021/06/16 06:24:37;;;;;;;3.80;1.50;;;;;;;17.89;62.34;101073.02;1671244;84;27523;-76
2021/06/16 06:27:05;;;;;;;4.62;1.17;;;;;;;17.93;62.75;101076.09;1664407;84;25859;-76
2021/06/16 06:29:33;;;;;;;1.42;1.07;;;;;;;17.97;62.91;101084.92;1684663;83;25857;-76
2021/06/16 06:32:00;;;;;;;5.12;1.27;;;;;;;18.03;62.69;101083.18;1662867;84;25866;-76
2021/06/16 06:34:27;;;;;;;3.75;1.40;;;;;;;18.04;62.40;101087.56;1625023;85;26429;-75
2021/06/16 06:36:54;;;;;;;5.05;1.67;;;;;;;18.05;62.43;101087.33;1645357;84;27445;-76
2021/06/16 06:39:21;;;;;;;3.65;1.50;;;;;;;18.07;62.25;101087.13;1681589;84;25908;-75
2021/06/16 06:41:48;;;;;;;3.02;1.75;;;;;;;18.16;62.39;101086.59;1637708;84;25957;-76
2021/06/16 06:44:18;;;;;;;6.17;1.50;;;;;;;18.25;62.22;101083.06;1667814;84;25871;-76
2021/06/16 06:46:45;;;;;;;4.33;1.40;;;;;;;18.32;61.18;101081.95;1661867;84;25898;-75
2021/06/16 06:49:12;;;;;;;3.45;1.15;;;;;;;18.37;60.74;101085.32;1682987;84;27501;-76
2021/06/16 06:51:39;;;;;;;2.77;1.15;;;;;;;18.43;61.10;101084.45;1638284;84;25824;-76
2021/06/16 06:54:09;;;;;;;2.50;1.22;;;;;;;18.54;61.80;101083.70;1657449;84;26669;-76
2021/06/16 06:56:40;;;;;;;3.47;1.27;;;;;;;18.70;61.53;101079.55;1660355;84;26558;-76
2021/06/16 06:59:07;;;;;;;4.70;1.60;;;;;;;18.76;60.71;101078.63;1667576;84;26524;-76
2021/06/16 07:01:34;;;;;;;3.95;1.07;;;;;;;18.83;59.23;101072.59;1636697;84;28311;-76
2021/06/16 07:04:01;;;;;;;7.22;1.67;;;;;;;18.92;59.85;101076.66;1658491;84;25801;-76
2021/06/16 07:06:30;;;;;;;8.88;2.02;;;;;;;19.05;59.77;101076.48;1666680;84;26682;-76
2021/06/16 07:08:58;;;;;;;3.75;1.32;;;;;;;19.18;59.39;101074.37;1690159;84;25812;-76
2021/06/16 07:11:25;;;;;;;3.85;1.20;;;;;;;19.24;58.22;101078.07;1636671;84;26492;-77
2021/06/16 07:13:52;;;;;;;1.65;0.80;;;;;;;19.27;58.51;101078.14;1666269;83;27688;-76
2021/06/16 07:16:19;;;;;;;4.35;1.50;;;;;;;19.30;57.74;101078.50;1656725;84;25960;-76
2021/06/16 07:18:48;;;;;;;4.60;1.15;;;;;;;19.38;58.53;101083.63;1680895;84;25375;-76
2021/06/16 07:21:16;;;;;;;3.15;1.10;;;;;;;19.46;57.94;101072.41;1635046;84;26124;-76
2021/06/16 07:23:43;;;;;;;3.40;1.10;;;;;;;19.52;58.14;101079.66;1662290;83;26165;-76
2021/06/16 07:26:10;;;;;;;7.00;1.45;;;;;;;19.58;55.98;101076.52;1658732;84;27676;-76
2021/06/16 07:28:37;;;;;;;3.80;1.20;;;;;;;19.60;56.32;101080.67;1690678;84;26539;-76
2021/06/16 07:31:04;;;;;;;5.30;1.22;;;;;;;19.69;56.64;101072.47;1643286;84;25824;-75
2021/06/16 07:33:31;;;;;;;4.83;1.52;;;;;;;19.77;56.52;101076.20;1639395;84;25887;-76
2021/06/16 07:35:58;;;;;;;3.35;1.10;;;;;;;19.86;56.75;101080.75;1670233;84;25885;-76
2021/06/16 07:38:25;;;;;;;3.20;1.20;;;;;;;19.91;56.79;101075.41;1676703;84;27504;-76
2021/06/16 07:40:53;;;;;;;7.65;1.35;;;;;;;19.97;56.64;101074.50;1635823;85;25779;-77
2021/06/16 07:43:20;;;;;;;2.52;0.85;;;;;;;20.08;56.02;101075.55;1640322;84;25812;-76
2021/06/16 07:45:47;;;;;;;2.83;0.93;;;;;;;20.06;53.29;101074.41;1654354;84;26653;-76
2021/06/16 07:48:14;;;;;;;2.65;0.80;;;;;;;20.00;53.48;101071.28;1681272;84;25815;-76
2021/06/16 07:50:42;;;;;;;2.52;0.85;;;;;;;20.00;53.12;101079.44;1684296;82;27557;-76
2021/06/16 07:53:10;;;;;;;4.37;0.70;;;;;;;20.04;53.20;101083.90;1650379;84;25882;-76
2021/06/16 07:55:39;;;;;;;4.50;0.90;;;;;;;20.15;52.81;101074.88;1615530;84;25933;-75
2021/06/16 07:58:07;;;;;;;3.50;0.90;;;;;;;20.24;52.62;101081.13;1662866;84;26442;-76
2021/06/16 08:00:37;;;;;;;5.95;1.50;;;;;;;20.35;52.47;101082.17;1636064;85;26069;-75
2021/06/16 08:03:04;;;;;;;2.98;0.90;;;;;;;20.39;52.60;101078.74;1641143;84;28034;-76
2021/06/16 08:05:32;;;;;;;1.92;0.85;;;;;;;20.44;51.86;101081.58;1669550;84;25883;-77
2021/06/16 08:07:59;;;;;;;2.72;0.70;;;;;;;20.46;49.73;101082.69;1686305;84;25834;-76
2021/06/16 08:10:27;;;;;;;3.45;1.02;;;;;;;20.47;50.74;101087.05;1650700;84;26202;-76
2021/06/16 08:12:55;;;;;;;2.87;1.10;;;;;;;20.51;50.66;101084.97;1639534;84;26527;-77
2021/06/16 08:15:22;;;;;;;1.95;0.90;;;;;;;20.55;50.21;101087.51;1660991;84;27376;-76
2021/06/16 08:17:50;;;;;;;5.33;0.90;;;;;;;20.59;50.65;101087.87;1659028;84;26295;-76
2021/06/16 08:20:19;;;;;;;2.55;0.70;;;;;;;20.70;50.90;101090.55;1643932;84;25934;-76
2021/06/16 08:22:46;;;;;;;4.00;1.35;;;;;;;20.77;49.70;101090.41;1669654;84;25830;-76
2021/06/16 08:25:13;;;;;;;2.42;0.95;;;;;;;20.74;49.87;101091.72;1621124;84;25928;-76
2021/06/16 08:27:42;;;;;;;3.30;1.02;;;;;;;20.78;50.46;101096.69;1643231;84;27528;-76
2021/06/16 08:30:12;;;;;;;3.33;1.00;;;;;;;20.80;49.55;101100.00;1630678;84;25837;-76
2021/06/16 08:32:40;;;;;;;2.92;0.90;;;;;;;20.90;50.64;101101.55;1660466;83;25628;-76
2021/06/16 08:35:09;;;;;;;2.50;0.93;;;;;;;21.02;51.39;101101.00;1662683;84;26419;-76
2021/06/16 08:37:36;;;;;;;3.33;0.98;;;;;;;21.12;50.34;101093.88;1665713;85;25800;-76
2021/06/16 08:40:06;;;;;;;2.10;1.02;;;;;;;21.16;50.47;101098.29;1671909;84;27570;-76
2021/06/16 08:42:33;;;;;;;5.05;1.12;;;;;;;21.24;51.34;101098.72;1625252;85;26522;-76
2021/06/16 08:45:00;;;;;;;2.72;1.00;;;;;;;21.33;50.67;101094.53;1655189;85;25852;-76
2021/06/16 08:47:29;;;;;;;1.77;1.10;;;;;;;21.44;50.98;101092.81;1650432;85;27007;-76
2021/06/16 08:49:56;;;;;;;4.58;1.22;;;;;;;21.51;50.45;101098.95;1630822;85;25882;-76
2021/06/16 08:52:23;;;;;;;4.20;1.42;;;;;;;21.55;50.30;101097.91;1671190;85;27625;-76
2021/06/16 08:54:50;;;;;;;3.00;1.22;;;;;;;21.62;50.83;101098.02;1662843;85;25781;-76
2021/06/16 08:57:17;;;;;;;4.87;1.10;;;;;;;21.73;52.00;101097.13;1604878;85;26686;-76
2021/06/16 08:59:44;;;;;;;2.67;1.00;;;;;;;21.86;50.23;101095.46;1622176;85;26480;-76
2021/06/16 09:02:11;;;;;;;2.90;1.20;;;;;;;21.84;50.99;101096.25;1661248;85;25816;-76
2021/06/16 09:04:48;;;;;;;3.55;1.07;;;;;;;21.85;50.69;101098.45;1647539;85;27537;-76
2021/06/16 09:07:27;;;;;;;2.65;1.17;;;;;;;21.90;50.81;101102.59;1626920;85;25878;-76
2021/06/16 09:10:14;;;;;;;3.22;1.50;;;;;;;21.92;50.18;101105.94;1670489;85;25795;-77
2021/06/16 09:12:53;;;;;;;4.53;1.55;;;;;;;21.87;50.65;101099.02;1672681;85;25838;-76
2021/06/16 09:15:22;;;;;;;5.50;1.45;;;;;;;21.89;50.72;101098.23;1664397;85;25758;-76
2021/06/16 09:18:05;;;;;;;3.47;1.32;;;;;;;21.95;50.22;101104.05;1590686;87;28373;-76
2021/06/16 09:20:44;;;;;;;4.22;1.45;;;;;;;21.95;50.63;101106.25;1586142;88;26102;-76
2021/06/16 09:23:17;;;;;;;2.77;1.42;;;;;;;22.02;51.35;101104.19;1633011;86;25886;-76
2021/06/16 09:26:04;;;;;;;4.47;1.40;;;;;;;22.04;50.14;101093.84;1599325;86;25867;-76
2021/06/16 09:28:38;;;;;;;4.87;2.10;;;;;;;22.08;49.29;101096.89;1535560;90;25932;-76
2021/06/16 09:31:07;;;;;;;2.87;1.27;;;;;;;22.08;48.89;101098.26;1588411;87;27539;-76
2021/06/16 09:33:35;;;;;;;2.70;1.25;;;;;;;22.07;48.89;101101.52;1619418;86;25773;-76
2021/06/16 09:36:12;;;;;;;2.65;1.22;;;;;;;22.10;49.28;101098.30;1651107;86;25956;-76
2021/06/16 09:38:42;;;;;;;3.25;1.45;;;;;;;22.12;49.26;101093.95;1610051;86;26410;-77
2021/06/16 09:41:11;;;;;;;4.78;2.12;;;;;;;22.17;48.68;101098.13;1633545;86;26453;-76
2021/06/16 09:43:40;;;;;;;4.67;1.42;;;;;;;22.18;49.64;101095.14;1619657;86;27585;-76
2021/06/16 09:46:11;;;;;;;2.62;1.30;;;;;;;22.22;49.59;101094.92;1644959;86;25941;-76
2021/06/16 09:48:45;;;;;;;4.62;1.45;;;;;;;22.31;49.71;101095.84;1589876;86;25422;-76
2021/06/16 09:51:28;;;;;;;5.50;1.70;;;;;;;22.38;49.25;101092.41;1611792;87;25934;-76
2021/06/16 09:54:21;;;;;;;2.77;1.62;;;;;;;22.40;48.54;101088.34;1607478;86;25891;-76
2021/06/16 09:56:55;;;;;;;5.25;1.70;;;;;;;22.43;49.67;101085.13;1611684;86;27572;-76
2021/06/16 09:59:45;;;;;;;4.85;1.65;;;;;;;22.50;49.49;101094.47;1589321;88;26546;-76
2021/06/16 10:02:23;;;;;;;4.03;1.90;;;;;;;22.56;50.02;101090.75;1593453;86;26620;-76
2021/06/16 10:04:59;;;;;;;2.65;1.60;;;;;;;22.64;49.16;101091.70;1603751;87;25888;-77
2021/06/16 10:07:31;;;;;;;3.52;1.70;;;;;;;22.69;50.38;101094.50;1627493;88;25801;-76
2021/06/16 10:10:06;;;;;;;3.62;1.47;;;;;;;22.76;49.34;101093.75;1612933;87;27331;-76
2021/06/16 10:12:43;;;;;;;3.00;1.95;;;;;;;22.74;49.65;101090.45;1607649;88;25861;-77
2021/06/16 10:15:15;;;;;;;4.95;2.10;;;;;;;22.79;49.94;101096.82;1606802;86;25837;-77
2021/06/16 10:17:43;;;;;;;4.62;2.10;;;;;;;22.79;50.31;101092.72;1638785;86;25869;-76
2021/06/16 10:20:13;;;;;;;6.70;2.52;;;;;;;22.87;49.63;101095.53;1598191;86;25889;-76
2021/06/16 10:22:40;;;;;;;6.67;2.25;;;;;;;22.89;49.22;101095.56;1601591;86;27599;-76
2021/06/16 10:25:10;;;;;;;4.20;1.90;;;;;;;22.89;48.19;101090.63;1639057;86;26197;-76
2021/06/16 10:28:00;;;;;;;5.23;2.20;;;;;;;22.90;49.12;101096.39;1635988;86;25900;-76
2021/06/16 10:30:31;;;;;;;6.42;2.37;;;;;;;22.97;49.06;101101.10;1660920;83;26225;-77
2021/06/16 10:33:00;;;;;;;4.17;2.20;;;;;;;23.06;49.19;101098.20;1669699;83;25944;-76
2021/06/16 10:35:35;;;;;;;6.37;2.02;;;;;;;23.11;49.95;101098.80;1692185;83;27538;-76
2021/06/16 10:38:18;;;;;;;3.75;2.12;;;;;;;23.15;48.74;101105.41;1681466;83;26527;-76
2021/06/16 10:40:50;;;;;;;5.67;2.30;;;;;;;23.18;48.58;101095.34;1647013;83;25893;-76
2021/06/16 10:43:20;;;;;;;3.80;2.30;;;;;;;23.19;48.34;101097.80;1667186;83;26014;-76
2021/06/16 10:45:54;;;;;;;7.55;2.87;;;;;;;23.24;49.13;101098.40;1673583;83;26156;-76
2021/06/16 10:48:24;;;;;;;3.35;2.10;;;;;;;23.26;48.72;101092.13;1690182;83;28231;-76
2021/06/16 10:51:01;;;;;;;4.80;2.57;;;;;;;23.32;48.93;101092.45;1590800;86;25388;-76
2021/06/16 10:53:28;;;;;;;6.25;2.10;;;;;;;23.40;49.25;101087.38;1634423;86;26535;-77
2021/06/16 10:56:00;;;;;;;4.10;2.52;;;;;;;23.56;50.85;101084.25;1663854;83;26508;-76
2021/06/16 10:58:33;;;;;;;3.77;2.12;;;;;;;23.59;48.42;101086.44;1687197;83;25903;-76
2021/06/16 11:01:23;;;;;;;5.65;2.30;;;;;;;23.55;50.84;101083.95;1658325;83;27450;-76
2021/06/16 11:03:55;;;;;;;5.03;2.15;;;;;;;23.62;49.56;101087.30;1665685;83;25859;-77
2021/06/16 11:06:40;;;;;;;4.22;2.35;;;;;;;23.61;49.77;101097.41;1669732;84;26301;-77
2021/06/16 11:09:15;;;;;;;5.05;2.70;;;;;;;23.54;49.09;101089.16;1681321;83;25825;-77
2021/06/16 11:12:04;;;;;;;10.30;2.87;;;;;;;23.59;49.98;101085.91;1636891;83;25885;-76
2021/06/16 11:14:39;;;;;;;4.20;2.65;;;;;;;23.62;49.90;101085.41;1683632;83;28354;-76
2021/06/16 11:17:08;;;;;;;3.52;2.42;;;;;;;23.60;50.65;101081.27;1629455;86;25869;-77
2021/06/16 11:19:40;;;;;;;6.97;3.42;;;;;;;23.59;48.84;101087.81;1614194;84;25379;-76
2021/06/16 11:22:19;;;;;;;5.67;3.35;;;;;;;23.57;49.14;101083.98;1577863;87;25722;-76
2021/06/16 11:25:29;;;;;;;6.53;3.22;;;;;;;23.57;49.49;101090.81;1643966;86;26083;-77
2021/06/16 11:28:21;;;;;;;10.43;3.77;;;;;;;23.69;49.50;101087.35;1639610;85;28183;-77
2021/06/16 11:30:56;;;;;;;5.80;3.40;;;;;;;23.84;50.21;101083.10;1629309;86;25910;-76
2021/06/16 11:33:30;;;;;;;6.97;3.58;;;;;;;23.94;50.26;101088.64;1635052;86;25851;-76
2021/06/16 11:36:10;;;;;;;4.22;3.42;;;;;;;23.99;51.76;101084.05;1618374;87;25805;-77